Aérodrome :
LOGIN :

S'inscrire | Disclaimer

   EN    FR    IT 

 










Légende :    VFR   VFR Marginal   IFR   IFR Intensif   IFR Très Intensif
Visi : 
Plafond : 
>= 8 km
>= 3000ft
5 à 8 km
1000 à 3000 ft
1500m à 5 km
500 à 1000 ft
800 à 1500m
200 à 500 ft
< 800m
< 200 ft
Symboles :   Orages  Brouillard  Fortes neiges  Fortes précipitations  Vent > 20 kt
SIGMETs :   Divers  Orages  Givrage  Turbulence  Onde Orograph.  Cendres Volcan.






- Altitude de l'aérodrome : 26 ft
- Code IATA : BIA


LFKB - Bastia

DERNIER METAR :
  • 131700Z AUTO VRB02KT CAVOK 11/06 Q1003 NOSIG

METARs EXPIRÉS :
  • 131630Z AUTO 24004KT CAVOK 11/05 Q1002 BECMG 32010KT
  • 131600Z AUTO 31007KT CAVOK 14/03 Q1002 NOSIG
  • 131530Z AUTO 32006KT CAVOK 15/03 Q1001 NOSIG
  • 131500Z AUTO 31009KT CAVOK 16/03 Q1001 NOSIG
  • 131430Z AUTO 30009KT 270V330 CAVOK 16/03 Q1001 NOSIG

TAF TAF LFKB
Valide du 13 à 15h jusqu'au 14 à 15h UTC


131400Z 1315/1415 32010KT CAVOK TX16/1315Z TN09/1405Z
BECMG 1319/1321 23006KT
BECMG 1412/1415 15010KT BKN025 OVC250
ATIS : +33 4 95 59 19 40



MET'MAP, la Météo Aéronautique d'un coup d'oeil ! - Copyright ORBIFLY Décembre 2007 - Disclaimer

ORBIFLY MET'MAP TEAM :

Programmation & Développement : Alexandra Zaïnal
Conception & Développement : Baudouin d'Aumeries
Co-Programmation & Développement : Marc-Olivier Méhu
Soutien technique & logistique : Manuel Goepfert

Contact : metmap@orbifly.com




SOURCES & CREDITS :

   NOAA